Terminal Aerodrome Forecast
Issued by NWS Charleston, WV

Current Version | Previous Version | Text Only | Print | Product List | Glossary Off
Versions: 1 2 3 4 5 6 7 8 9 10 11 12 13 14 15 16 17 18 19 20 21 22 23 24 25 26 27 28

000
FTUS41 KRLX 171100
TAFBKW
TAF
KBKW 171124Z 1712/1812 VRB04KT P6SM BKN070
      TEMPO 1712/1713 5SM BR
     FM171500 27004KT P6SM BKN060
     FM171900 28006KT P6SM VCTS BKN040CB
     FM181100 20004KT 6SM SHRA BR VCTS OVC040CB=

USA.gov is the U.S. government's official web portal to all federal, state and local government web resources and services.